createdAt,value
2018-04-22T00:00:45.454Z,16.70
2018-04-22T00:03:11.870Z,16.60
2018-04-22T00:05:39.018Z,16.20
2018-04-22T00:08:06.189Z,16.20
2018-04-22T00:10:32.583Z,16.10
2018-04-22T00:12:59.880Z,16.00
2018-04-22T00:15:26.300Z,16.00
2018-04-22T00:17:52.711Z,16.00
2018-04-22T00:20:19.855Z,15.70
2018-04-22T00:22:46.994Z,15.60
2018-04-22T00:25:14.316Z,15.60
2018-04-22T00:27:41.739Z,15.50
2018-04-22T00:30:09.531Z,15.50
2018-04-22T00:32:36.107Z,15.50
2018-04-22T00:35:02.638Z,15.60
2018-04-22T00:37:29.137Z,15.40
2018-04-22T00:39:55.585Z,15.30
2018-04-22T00:42:22.145Z,15.30
2018-04-22T00:44:50.380Z,15.20
2018-04-22T00:47:16.792Z,15.20
2018-04-22T00:49:43.187Z,15.20
2018-04-22T00:52:09.582Z,15.10
2018-04-22T00:54:39.524Z,15.00
2018-04-22T00:57:07.238Z,14.70
2018-04-22T00:59:34.613Z,14.70
2018-04-22T01:02:02.888Z,14.40
2018-04-22T01:04:29.970Z,14.40
2018-04-22T01:06:58.003Z,14.20
2018-04-22T01:09:24.792Z,14.20
2018-04-22T01:11:52.174Z,14.10
2018-04-22T01:14:19.079Z,14.10
2018-04-22T01:16:45.935Z,14.20
2018-04-22T01:19:12.563Z,14.20
2018-04-22T01:21:39.131Z,14.20
2018-04-22T01:24:07.437Z,14.10
2018-04-22T01:26:34.021Z,14.10
2018-04-22T01:29:01.413Z,14.00
2018-04-22T01:31:27.963Z,14.00
2018-04-22T01:33:54.523Z,14.00
2018-04-22T01:36:22.248Z,13.90
2018-04-22T01:38:48.908Z,13.90
2018-04-22T01:41:15.427Z,13.80
2018-04-22T01:43:42.758Z,13.90
2018-04-22T01:46:09.226Z,13.90
2018-04-22T01:48:35.632Z,13.90
2018-04-22T01:51:02.916Z,13.70
2018-04-22T01:53:29.336Z,13.70
2018-04-22T01:55:55.740Z,13.60
2018-04-22T01:58:22.608Z,13.70
2018-04-22T02:00:50.116Z,13.70
2018-04-22T02:03:17.769Z,13.20
2018-04-22T02:05:45.330Z,13.20
2018-04-22T02:08:12.983Z,13.10
2018-04-22T02:10:40.321Z,13.00
2018-04-22T02:13:08.515Z,13.00
2018-04-22T02:15:34.956Z,13.20
2018-04-22T02:18:01.859Z,13.20
2018-04-22T02:20:29.290Z,13.20
2018-04-22T02:22:58.836Z,13.10
2018-04-22T02:25:26.111Z,13.00
2018-04-22T02:27:52.525Z,13.00
2018-04-22T02:30:19.005Z,12.90
2018-04-22T02:32:46.641Z,12.90
2018-04-22T02:35:13.843Z,12.90
2018-04-22T02:37:41.239Z,12.90
2018-04-22T02:40:08.920Z,12.90
2018-04-22T02:42:36.435Z,12.80
2018-04-22T02:45:03.725Z,12.90
2018-04-22T02:47:30.256Z,12.70
2018-04-22T02:49:56.675Z,12.80
2018-04-22T02:52:23.926Z,12.70
2018-04-22T02:54:50.339Z,12.70
2018-04-22T02:57:16.727Z,12.50
2018-04-22T02:59:43.104Z,12.60
2018-04-22T03:02:11.278Z,12.70
2018-04-22T03:04:37.700Z,12.70
2018-04-22T03:07:07.041Z,12.70
2018-04-22T03:09:33.439Z,12.60
2018-04-22T03:11:59.840Z,12.40
2018-04-22T03:14:26.968Z,12.30
2018-04-22T03:16:53.370Z,12.30
2018-04-22T03:19:19.764Z,12.20
2018-04-22T03:21:46.155Z,12.10
2018-04-22T03:24:12.547Z,12.10
2018-04-22T03:26:39.006Z,12.20
2018-04-22T03:29:05.400Z,12.30
2018-04-22T03:31:31.801Z,12.30
2018-04-22T03:33:58.203Z,12.20
2018-04-22T03:36:24.580Z,12.20
2018-04-22T03:38:51.729Z,12.10
2018-04-22T03:41:18.859Z,12.00
2018-04-22T03:43:45.355Z,12.00
2018-04-22T03:46:11.771Z,11.90
2018-04-22T03:48:38.161Z,11.80
2018-04-22T03:51:04.552Z,11.90
2018-04-22T03:53:30.930Z,11.90
2018-04-22T03:55:58.086Z,12.00
2018-04-22T03:58:25.663Z,11.90
2018-04-22T04:00:52.796Z,11.80
2018-04-22T04:03:21.045Z,11.80
2018-04-22T04:05:47.471Z,11.90
2018-04-22T04:08:13.911Z,12.10
2018-04-22T04:10:40.327Z,12.00
2018-04-22T04:13:06.834Z,12.00
2018-04-22T04:15:34.130Z,12.10
2018-04-22T04:21:25.876Z,12.00
2018-04-22T04:27:25.163Z,12.00
2018-04-22T04:29:51.597Z,12.00
2018-04-22T04:32:19.040Z,12.00
2018-04-22T04:34:46.135Z,12.10
2018-04-22T04:37:12.732Z,12.30
2018-04-22T04:39:39.129Z,12.40
2018-04-22T04:42:06.643Z,12.50
2018-04-22T04:44:33.117Z,12.70
2018-04-22T04:46:59.760Z,12.50
2018-04-22T04:49:26.453Z,12.60
2018-04-22T04:51:55.262Z,12.40
2018-04-22T04:54:21.940Z,12.40
2018-04-22T04:56:50.270Z,12.30
2018-04-22T04:59:18.974Z,12.30
2018-04-22T05:01:48.942Z,12.40
2018-04-22T05:04:16.255Z,12.40
2018-04-22T05:06:42.801Z,12.50
2018-04-22T05:09:09.419Z,12.50
2018-04-22T05:11:35.955Z,12.70
2018-04-22T05:14:04.056Z,13.10
2018-04-22T05:16:30.460Z,13.10
2018-04-22T05:18:57.605Z,13.10
2018-04-22T05:21:25.212Z,13.30
2018-04-22T05:23:51.848Z,13.40
2018-04-22T05:26:18.410Z,13.40
2018-04-22T05:28:46.341Z,13.50
2018-04-22T05:31:13.868Z,14.00
2018-04-22T05:33:41.540Z,14.00
2018-04-22T05:38:38.233Z,14.80
2018-04-22T05:41:06.026Z,15.00
2018-04-22T05:43:33.562Z,15.20
2018-04-22T05:46:01.221Z,15.60
2018-04-22T05:48:28.791Z,15.90
2018-04-22T05:50:57.404Z,15.60
2018-04-22T05:53:26.402Z,15.60
2018-04-22T05:55:54.134Z,15.50
2018-04-22T05:58:20.681Z,15.90
2018-04-22T06:00:47.673Z,16.30
2018-04-22T06:03:15.983Z,16.50
2018-04-22T06:05:42.488Z,16.40
2018-04-22T06:08:09.903Z,16.40
2018-04-22T06:10:38.247Z,16.60
2018-04-22T06:13:05.637Z,16.50
2018-04-22T06:15:32.484Z,16.50
2018-04-22T06:17:59.393Z,16.50
2018-04-22T06:20:27.996Z,16.70
2018-04-22T06:22:54.692Z,17.20
2018-04-22T06:25:21.905Z,17.80
2018-04-22T06:27:49.355Z,18.80
2018-04-22T06:30:17.489Z,18.80
2018-04-22T06:32:44.512Z,19.10
2018-04-22T06:35:11.806Z,19.30
2018-04-22T06:37:40.191Z,19.50
2018-04-22T06:40:07.612Z,20.00
2018-04-22T06:42:36.035Z,20.30
2018-04-22T06:45:03.626Z,20.30
2018-04-22T06:47:30.270Z,20.40
2018-04-22T06:49:56.728Z,20.30
2018-04-22T06:52:24.655Z,20.60
2018-04-22T06:54:51.117Z,20.70
2018-04-22T06:57:18.748Z,20.80
2018-04-22T06:59:45.802Z,21.10
2018-04-22T07:02:13.224Z,21.80
2018-04-22T07:04:42.354Z,22.30
2018-04-22T07:07:09.334Z,22.30
2018-04-22T07:09:36.816Z,22.60
2018-04-22T07:12:03.974Z,22.80
2018-04-22T07:14:30.623Z,22.50
2018-04-22T07:16:57.073Z,22.90
2018-04-22T07:19:23.989Z,23.30
2018-04-22T07:21:50.613Z,23.40
2018-04-22T07:24:17.941Z,23.70
2018-04-22T07:26:44.935Z,24.20
2018-04-22T07:29:11.344Z,24.30
2018-04-22T07:31:37.851Z,23.90
2018-04-22T07:34:05.068Z,24.50
2018-04-22T07:36:31.486Z,24.40
2018-04-22T07:38:57.949Z,24.80
2018-04-22T07:41:24.377Z,25.00
2018-04-22T07:43:50.802Z,24.70
2018-04-22T07:46:17.218Z,24.60
2018-04-22T07:48:43.661Z,24.90
2018-04-22T07:51:10.163Z,24.70
2018-04-22T07:53:36.603Z,24.30
2018-04-22T07:56:03.035Z,24.20
2018-04-22T07:58:29.599Z,24.60
2018-04-22T08:00:55.995Z,24.70
2018-04-22T08:03:22.422Z,24.70
2018-04-22T08:05:49.593Z,25.10
2018-04-22T08:08:16.012Z,25.00
2018-04-22T08:10:42.433Z,25.10
2018-04-22T08:13:08.837Z,24.90
2018-04-22T08:15:35.298Z,24.90
2018-04-22T08:18:02.462Z,24.70
2018-04-22T08:20:29.621Z,24.70
2018-04-22T08:22:56.779Z,25.00
2018-04-22T08:25:23.193Z,25.00
2018-04-22T08:27:50.343Z,25.80
2018-04-22T08:30:17.487Z,26.00
2018-04-22T08:32:44.645Z,26.10
2018-04-22T08:35:11.788Z,25.90
2018-04-22T08:37:38.195Z,25.90
2018-04-22T08:40:04.608Z,25.50
2018-04-22T08:42:31.016Z,25.50
2018-04-22T08:44:57.420Z,25.50
2018-04-22T08:47:24.561Z,25.60
2018-04-22T08:49:50.963Z,25.60
2018-04-22T08:52:18.861Z,25.40
2018-04-22T08:54:45.240Z,25.40
2018-04-22T08:57:11.653Z,25.40
2018-04-22T08:59:38.783Z,25.30
2018-04-22T09:02:05.961Z,25.30
2018-04-22T09:04:33.185Z,25.50
2018-04-22T09:07:00.323Z,25.80
2018-04-22T09:09:26.829Z,25.80
2018-04-22T09:11:53.205Z,25.80
2018-04-22T09:14:20.352Z,25.60
2018-04-22T09:16:47.503Z,25.30
2018-04-22T09:19:14.670Z,24.90
2018-04-22T09:21:41.077Z,24.90
2018-04-22T09:24:07.479Z,25.10
2018-04-22T09:26:33.876Z,25.00
2018-04-22T09:29:00.284Z,25.10
2018-04-22T09:31:27.423Z,25.30
2018-04-22T09:33:53.823Z,25.30
2018-04-22T09:36:20.229Z,25.40
2018-04-22T09:38:46.638Z,25.50
2018-04-22T09:41:13.785Z,25.90
2018-04-22T09:43:40.955Z,25.80
2018-04-22T09:46:08.092Z,26.10
2018-04-22T09:48:50.170Z,26.10
2018-04-22T09:51:16.595Z,26.10
2018-04-22T09:53:42.979Z,26.20
2018-04-22T09:56:10.113Z,26.30
2018-04-22T09:58:37.383Z,26.30
2018-04-22T10:01:03.823Z,26.30
2018-04-22T10:03:30.252Z,26.40
2018-04-22T10:06:01.560Z,26.30
2018-04-22T10:08:27.971Z,26.40
2018-04-22T10:10:55.185Z,26.50
2018-04-22T10:13:21.662Z,26.60
2018-04-22T10:15:48.121Z,26.60
2018-04-22T10:18:15.282Z,27.10
2018-04-22T10:20:42.556Z,26.90
2018-04-22T10:23:08.979Z,26.90
2018-04-22T10:25:35.382Z,27.40
2018-04-22T10:28:01.815Z,27.30
2018-04-22T10:30:28.231Z,27.50
2018-04-22T10:32:54.642Z,27.40
2018-04-22T10:35:21.073Z,27.20
2018-04-22T10:37:47.502Z,27.30
2018-04-22T10:40:13.915Z,27.10
2018-04-22T10:42:40.368Z,27.10
2018-04-22T10:45:06.755Z,27.00
2018-04-22T10:47:33.892Z,27.50
2018-04-22T10:50:00.326Z,27.50
2018-04-22T10:52:26.715Z,27.40
2018-04-22T10:54:53.137Z,27.40
2018-04-22T10:57:19.554Z,27.20
2018-04-22T10:59:46.013Z,27.40
2018-04-22T11:02:12.427Z,27.50
2018-04-22T11:04:38.839Z,27.40
2018-04-22T11:07:06.017Z,27.10
2018-04-22T11:09:32.511Z,27.00
2018-04-22T11:11:59.676Z,27.20
2018-04-22T11:14:27.023Z,27.60
2018-04-22T11:16:53.475Z,27.60
2018-04-22T11:19:20.601Z,27.90
2018-04-22T11:21:46.982Z,27.90
2018-04-22T11:24:13.385Z,28.40
2018-04-22T11:26:40.536Z,28.30
2018-04-22T11:29:21.258Z,28.20
2018-04-22T11:31:47.677Z,28.10
2018-04-22T11:34:14.094Z,27.90
2018-04-22T11:36:40.638Z,28.00
2018-04-22T11:39:07.030Z,28.00
2018-04-22T11:41:34.175Z,28.60
2018-04-22T11:44:01.346Z,28.80
2018-04-22T11:46:28.477Z,28.90
2018-04-22T11:48:54.853Z,28.80
2018-04-22T11:51:21.251Z,28.80
2018-04-22T11:53:48.384Z,29.40
2018-04-22T11:56:14.774Z,29.30
2018-04-22T11:58:41.169Z,29.30
2018-04-22T12:01:08.314Z,29.10
2018-04-22T12:03:35.466Z,29.30
2018-04-22T12:06:02.618Z,29.30
2018-04-22T12:08:29.764Z,29.50
2018-04-22T12:10:56.917Z,29.50
2018-04-22T12:13:25.465Z,28.90
2018-04-22T12:15:51.872Z,28.80
2018-04-22T12:18:18.278Z,28.20
2018-04-22T12:20:45.436Z,28.30
2018-04-22T12:23:11.852Z,28.20
2018-04-22T12:25:38.978Z,28.90
2018-04-22T12:28:05.382Z,28.90
2018-04-22T12:30:31.777Z,29.30
2018-04-22T12:32:58.910Z,29.40
2018-04-22T12:35:26.058Z,29.10
2018-04-22T12:37:53.200Z,29.50
2018-04-22T12:40:19.597Z,29.50
2018-04-22T12:42:45.989Z,28.90
2018-04-22T12:45:13.125Z,28.80
2018-04-22T12:47:40.311Z,29.00
2018-04-22T12:50:06.712Z,29.00
2018-04-22T12:52:33.855Z,28.70
2018-04-22T12:55:00.251Z,28.70
2018-04-22T12:57:26.660Z,29.00
2018-04-22T12:59:53.085Z,29.20
2018-04-22T13:02:19.479Z,29.30
2018-04-22T13:04:47.339Z,29.10
2018-04-22T13:07:13.743Z,29.20
2018-04-22T13:09:40.155Z,29.40
2018-04-22T13:12:06.549Z,29.50
2018-04-22T13:14:33.683Z,29.60
2018-04-22T13:17:00.069Z,29.60
2018-04-22T13:19:26.621Z,30.00
2018-04-22T13:21:53.018Z,30.20
2018-04-22T13:24:19.418Z,30.60
2018-04-22T13:26:45.824Z,30.40
2018-04-22T13:29:12.216Z,30.80
2018-04-22T13:31:39.399Z,30.80
2018-04-22T13:34:05.824Z,30.80
2018-04-22T13:36:32.236Z,30.50
2018-04-22T13:38:59.415Z,29.10
2018-04-22T13:41:25.801Z,29.10
2018-04-22T13:43:52.235Z,28.90
2018-04-22T13:46:19.388Z,28.70
2018-04-22T13:48:46.540Z,28.30
2018-04-22T13:51:13.673Z,27.80
2018-04-22T13:53:40.068Z,27.80
2018-04-22T13:56:06.522Z,27.70
2018-04-22T13:58:32.915Z,27.90
2018-04-22T14:00:59.310Z,28.00
2018-04-22T14:03:26.467Z,28.20
2018-04-22T14:05:52.895Z,28.10
2018-04-22T14:08:20.031Z,29.00
2018-04-22T14:10:46.414Z,29.00
2018-04-22T14:13:12.852Z,29.10
2018-04-22T14:15:39.229Z,28.80
2018-04-22T14:18:05.616Z,28.50
2018-04-22T14:20:32.002Z,28.20
2018-04-22T14:22:58.468Z,28.30
2018-04-22T14:25:25.604Z,28.00
2018-04-22T14:27:52.749Z,27.80
2018-04-22T14:30:19.879Z,27.60
2018-04-22T14:32:47.018Z,27.50
2018-04-22T14:35:13.421Z,27.40
2018-04-22T14:37:39.817Z,27.30
2018-04-22T14:40:06.991Z,27.40
2018-04-22T14:42:33.414Z,27.40
2018-04-22T14:45:12.090Z,27.30
2018-04-22T14:47:38.496Z,27.30
2018-04-22T14:50:04.888Z,27.50
2018-04-22T14:52:32.022Z,27.50
2018-04-22T14:54:58.398Z,27.50
2018-04-22T14:57:24.774Z,27.50
2018-04-22T14:59:51.188Z,27.60
2018-04-22T15:02:17.601Z,27.70
2018-04-22T15:04:44.025Z,27.60
2018-04-22T15:07:10.411Z,27.30
2018-04-22T15:09:36.845Z,27.20
2018-04-22T15:12:03.256Z,26.70
2018-04-22T15:14:29.655Z,26.60
2018-04-22T15:16:56.046Z,26.80
2018-04-22T15:19:22.458Z,26.80
2018-04-22T15:21:48.854Z,26.70
2018-04-22T15:24:15.262Z,26.80
2018-04-22T15:26:41.730Z,27.10
2018-04-22T15:29:08.124Z,27.20
2018-04-22T15:31:35.267Z,27.30
2018-04-22T15:34:01.659Z,27.30
2018-04-22T15:36:28.052Z,27.30
2018-04-22T15:38:55.190Z,27.40
2018-04-22T15:41:22.335Z,27.50
2018-04-22T15:43:49.463Z,27.20
2018-04-22T15:46:15.873Z,27.20
2018-04-22T15:48:42.315Z,26.90
2018-04-22T15:51:08.722Z,26.60
2018-04-22T15:53:35.150Z,26.30
2018-04-22T15:56:01.553Z,26.10
2018-04-22T15:58:28.691Z,26.40
2018-04-22T16:00:55.128Z,26.40
2018-04-22T16:03:22.259Z,26.60
2018-04-22T16:05:48.702Z,26.50
2018-04-22T16:08:15.164Z,26.70
2018-04-22T16:10:41.520Z,26.50
2018-04-22T16:13:07.950Z,26.60
2018-04-22T16:15:34.357Z,26.40
2018-04-22T16:18:01.536Z,25.80
2018-04-22T16:20:27.940Z,25.80
2018-04-22T16:22:55.065Z,25.80
2018-04-22T16:25:21.481Z,25.80
2018-04-22T16:27:47.881Z,25.90
2018-04-22T16:30:14.330Z,25.80
2018-04-22T16:32:40.746Z,25.90
2018-04-22T16:35:07.151Z,26.00
2018-04-22T16:37:33.580Z,26.10
2018-04-22T16:40:00.744Z,26.10
2018-04-22T16:42:27.891Z,26.00
2018-04-22T16:44:55.027Z,25.90
2018-04-22T16:47:21.423Z,25.90
2018-04-22T16:49:47.833Z,25.90
2018-04-22T16:52:14.236Z,26.00
2018-04-22T16:54:41.365Z,25.80
2018-04-22T16:57:07.758Z,25.80
2018-04-22T16:59:34.171Z,25.90
2018-04-22T17:02:01.297Z,25.80
2018-04-22T17:04:27.712Z,25.80
2018-04-22T17:06:55.602Z,25.60
2018-04-22T17:09:22.775Z,25.60
2018-04-22T17:11:49.213Z,25.60
2018-04-22T17:14:15.629Z,25.60
2018-04-22T17:16:42.775Z,25.70
2018-04-22T17:19:09.894Z,25.60
2018-04-22T17:21:36.303Z,25.60
2018-04-22T17:24:02.699Z,25.50
2018-04-22T17:26:29.836Z,25.50
2018-04-22T17:28:56.987Z,25.40
2018-04-22T17:31:23.619Z,25.40
2018-04-22T17:33:50.752Z,25.40
2018-04-22T17:36:17.144Z,25.40
2018-04-22T17:38:43.807Z,25.40
2018-04-22T17:41:10.226Z,25.30
2018-04-22T17:43:36.599Z,25.20
2018-04-22T17:46:02.986Z,25.10
2018-04-22T17:48:29.366Z,24.90
2018-04-22T17:50:56.494Z,24.50
2018-04-22T17:53:22.928Z,24.50
2018-04-22T17:55:49.371Z,24.40
2018-04-22T17:58:15.806Z,24.20
2018-04-22T18:00:42.233Z,23.90
2018-04-22T18:03:08.637Z,23.80
2018-04-22T18:05:35.028Z,23.70
2018-04-22T18:08:02.207Z,23.60
2018-04-22T18:10:28.841Z,23.60
2018-04-22T18:12:55.311Z,23.40
2018-04-22T18:15:21.757Z,23.40
2018-04-22T18:17:48.152Z,23.30
2018-04-22T18:20:14.542Z,22.90
2018-04-22T18:22:41.683Z,22.70
2018-04-22T18:25:08.083Z,22.60
2018-04-22T18:27:34.519Z,22.60
2018-04-22T18:30:00.922Z,22.50
2018-04-22T18:32:27.295Z,22.30
2018-04-22T18:34:53.686Z,22.20
2018-04-22T18:37:20.098Z,21.80
2018-04-22T18:39:46.564Z,21.60
2018-04-22T18:42:13.077Z,21.40
2018-04-22T18:44:39.558Z,21.40
2018-04-22T18:47:05.956Z,21.40
2018-04-22T18:49:32.376Z,21.20
2018-04-22T18:51:58.766Z,21.20
2018-04-22T18:54:25.225Z,21.30
2018-04-22T18:56:52.374Z,21.20
2018-04-22T18:59:19.560Z,21.10
2018-04-22T19:01:46.008Z,21.10
2018-04-22T19:04:12.423Z,21.00
2018-04-22T19:06:38.868Z,20.90
2018-04-22T19:09:05.356Z,20.60
2018-04-22T19:11:32.522Z,19.90
2018-04-22T19:13:59.661Z,19.80
2018-04-22T19:16:26.910Z,19.80
2018-04-22T19:18:54.056Z,19.90
2018-04-22T19:21:21.185Z,19.70
2018-04-22T19:23:48.355Z,19.50
2018-04-22T19:26:14.738Z,19.40
2018-04-22T19:28:41.174Z,19.20
2018-04-22T19:31:07.589Z,19.00
2018-04-22T19:33:34.012Z,18.80
2018-04-22T19:36:00.480Z,18.70
2018-04-22T19:38:26.949Z,18.60
2018-04-22T19:40:54.143Z,18.50
2018-04-22T19:43:20.537Z,18.50
2018-04-22T19:45:47.683Z,18.50
2018-04-22T19:48:14.071Z,18.50
2018-04-22T19:50:40.482Z,18.50
2018-04-22T19:53:06.952Z,18.40
2018-04-22T19:55:33.349Z,18.40
2018-04-22T19:57:59.758Z,18.40
2018-04-22T20:00:26.293Z,18.40
2018-04-22T20:02:53.426Z,18.00
2018-04-22T20:05:19.828Z,18.00
2018-04-22T20:07:46.207Z,17.50
2018-04-22T20:10:13.366Z,17.30
2018-04-22T20:12:40.515Z,17.30
2018-04-22T20:15:07.663Z,17.00
2018-04-22T20:17:34.834Z,17.00
2018-04-22T20:20:01.246Z,17.00
2018-04-22T20:22:28.397Z,16.90
2018-04-22T20:24:55.563Z,17.00
2018-04-22T20:27:21.967Z,17.00
2018-04-22T20:29:49.106Z,17.00
2018-04-22T20:32:15.529Z,17.00
2018-04-22T20:34:41.982Z,17.00
2018-04-22T20:37:08.438Z,17.00
2018-04-22T20:39:35.577Z,16.60
2018-04-22T20:42:02.702Z,16.50
2018-04-22T20:44:29.122Z,16.50
2018-04-22T20:46:55.528Z,16.20
2018-04-22T20:49:21.934Z,16.00
2018-04-22T20:51:49.084Z,15.90
2018-04-22T20:54:15.565Z,15.90
2018-04-22T20:56:41.961Z,15.80
2018-04-22T20:59:08.361Z,15.90
2018-04-22T21:01:34.769Z,15.90
2018-04-22T21:04:01.196Z,16.00
2018-04-22T21:06:27.630Z,16.10
2018-04-22T21:08:54.034Z,16.10
2018-04-22T21:11:20.468Z,16.20
2018-04-22T21:13:46.876Z,16.30
2018-04-22T21:16:14.032Z,16.10
2018-04-22T21:18:41.170Z,15.80
2018-04-22T21:21:08.327Z,15.60
2018-04-22T21:23:34.747Z,15.50
2018-04-22T21:26:01.899Z,15.50
2018-04-22T21:28:28.291Z,15.40
2018-04-22T21:30:54.689Z,15.60
2018-04-22T21:33:21.109Z,15.60
2018-04-22T21:35:48.276Z,15.60
2018-04-22T21:38:14.683Z,15.60
2018-04-22T21:40:41.867Z,15.60
2018-04-22T21:43:08.267Z,15.50
2018-04-22T21:45:35.410Z,15.40
2018-04-22T21:48:01.805Z,15.40
2018-04-22T21:50:28.200Z,15.30
2018-04-22T21:52:55.328Z,15.30
2018-04-22T21:55:21.852Z,15.20
2018-04-22T21:57:48.316Z,15.30
2018-04-22T22:00:14.754Z,15.30
2018-04-22T22:02:41.917Z,15.10
2018-04-22T22:05:08.323Z,15.10
2018-04-22T22:07:35.460Z,15.00
2018-04-22T22:10:01.875Z,14.90
2018-04-22T22:12:28.266Z,14.90
2018-04-22T22:14:54.673Z,14.80
2018-04-22T22:17:21.808Z,14.80
2018-04-22T22:19:48.201Z,14.80
2018-04-22T22:22:14.610Z,14.50
2018-04-22T22:24:41.038Z,14.30
2018-04-22T22:27:07.428Z,14.30
2018-04-22T22:29:34.622Z,14.10
2018-04-22T22:32:01.068Z,14.10
2018-04-22T22:34:27.474Z,14.10
2018-04-22T22:36:54.649Z,14.30
2018-04-22T22:39:21.023Z,14.30
2018-04-22T22:41:47.427Z,14.20
2018-04-22T22:44:13.837Z,14.10
2018-04-22T22:46:40.260Z,14.00
2018-04-22T22:49:07.408Z,13.90
2018-04-22T22:51:33.823Z,13.90
2018-04-22T22:54:00.216Z,14.00
2018-04-22T22:56:26.599Z,14.10
2018-04-22T22:58:53.751Z,14.20
2018-04-22T23:01:20.185Z,14.20
2018-04-22T23:03:47.378Z,14.10
2018-04-22T23:06:13.779Z,14.10
2018-04-22T23:08:40.191Z,14.00
2018-04-22T23:11:07.360Z,13.70
2018-04-22T23:13:33.769Z,13.70
2018-04-22T23:16:00.914Z,13.80
2018-04-22T23:18:28.068Z,13.90
2018-04-22T23:20:54.448Z,13.80
2018-04-22T23:23:20.844Z,13.70
2018-04-22T23:25:47.984Z,13.70
2018-04-22T23:28:15.141Z,13.70
2018-04-22T23:30:42.275Z,13.60
2018-04-22T23:33:09.426Z,13.40
2018-04-22T23:35:35.843Z,13.40
2018-04-22T23:38:02.246Z,13.40
2018-04-22T23:40:28.639Z,13.30
2018-04-22T23:42:55.780Z,13.00
2018-04-22T23:45:22.911Z,13.00
2018-04-22T23:47:50.787Z,12.90
2018-04-22T23:50:17.190Z,12.90
2018-04-22T23:52:43.590Z,12.90
2018-04-22T23:55:09.989Z,12.90
2018-04-22T23:57:37.122Z,12.90
